createdAt,value
2022-07-28T00:00:09.159Z,88.71
2022-07-28T00:02:39.564Z,88.54
2022-07-28T00:05:10.515Z,88.37
2022-07-28T00:07:40.415Z,88.13
2022-07-28T00:10:11.528Z,88.15
2022-07-28T00:12:43.828Z,88.38
2022-07-28T00:15:14.504Z,88.30
2022-07-28T00:17:44.228Z,88.03
2022-07-28T00:20:14.648Z,87.91
2022-07-28T00:22:45.137Z,88.00
2022-07-28T00:25:15.574Z,88.40
2022-07-28T00:27:48.497Z,88.46
2022-07-28T00:30:18.243Z,88.85
2022-07-28T00:32:48.294Z,88.81
2022-07-28T00:35:30.159Z,89.02
2022-07-28T00:38:01.073Z,88.84
2022-07-28T00:40:43.384Z,88.81
2022-07-28T00:43:15.749Z,88.79
2022-07-28T00:45:45.720Z,88.99
2022-07-28T00:48:15.433Z,89.24
2022-07-28T00:50:47.532Z,89.25
2022-07-28T00:53:17.566Z,89.21
2022-07-28T00:56:03.465Z,89.31
2022-07-28T00:58:40.204Z,89.69
2022-07-28T01:01:11.709Z,90.14
2022-07-28T01:03:44.465Z,90.30
2022-07-28T01:06:22.543Z,90.45
2022-07-28T01:09:01.833Z,90.74
2022-07-28T01:11:42.902Z,90.62
2022-07-28T01:14:22.237Z,90.96
2022-07-28T01:16:59.539Z,90.99
2022-07-28T01:19:42.581Z,91.27
2022-07-28T01:22:15.753Z,91.68
2022-07-28T01:24:59.214Z,91.83
2022-07-28T01:27:48.586Z,92.11
2022-07-28T01:30:32.278Z,92.33
2022-07-28T01:33:05.474Z,92.57
2022-07-28T01:35:40.684Z,92.63
2022-07-28T01:38:12.706Z,92.80
2022-07-28T01:40:45.858Z,92.59
2022-07-28T01:43:24.432Z,92.80
2022-07-28T01:45:58.649Z,92.80
2022-07-28T01:48:30.987Z,92.74
2022-07-28T01:51:01.350Z,92.51
2022-07-28T01:53:37.713Z,92.45
2022-07-28T01:56:10.593Z,92.54
2022-07-28T01:58:41.965Z,92.73
2022-07-28T02:01:17.564Z,92.72
2022-07-28T02:03:48.597Z,92.85
2022-07-28T02:06:21.032Z,93.08
2022-07-28T02:08:53.722Z,93.08
2022-07-28T02:11:36.434Z,93.18
2022-07-28T02:14:07.260Z,93.22
2022-07-28T02:16:41.859Z,93.31
2022-07-28T02:19:12.812Z,93.33
2022-07-28T02:21:47.726Z,93.61
2022-07-28T02:24:21.501Z,93.61
2022-07-28T02:26:56.410Z,93.54
2022-07-28T02:29:49.696Z,93.52
2022-07-28T02:32:27.066Z,93.72
2022-07-28T02:35:01.371Z,93.95
2022-07-28T02:37:37.635Z,94.31
2022-07-28T02:40:12.100Z,94.58
2022-07-28T02:42:43.958Z,94.52
2022-07-28T02:45:16.373Z,94.68
2022-07-28T02:47:54.541Z,94.79
2022-07-28T02:50:27.491Z,94.64
2022-07-28T02:53:00.898Z,94.53
2022-07-28T02:55:46.802Z,94.49
2022-07-28T02:58:18.588Z,94.27
2022-07-28T03:00:48.773Z,94.11
2022-07-28T03:03:22.349Z,93.95
2022-07-28T03:05:52.803Z,93.77
2022-07-28T03:08:22.583Z,93.77
2022-07-28T03:10:52.328Z,93.42
2022-07-28T03:13:22.045Z,93.51
2022-07-28T03:15:51.747Z,93.29
2022-07-28T03:18:27.453Z,93.30
2022-07-28T03:20:57.341Z,93.25
2022-07-28T03:23:31.533Z,93.19
2022-07-28T03:26:08.364Z,93.26
2022-07-28T03:28:39.434Z,93.07
2022-07-28T03:31:12.431Z,92.97
2022-07-28T03:33:45.122Z,92.91
2022-07-28T03:36:18.496Z,92.89
2022-07-28T03:38:54.539Z,92.98
2022-07-28T03:41:25.930Z,92.86
2022-07-28T03:43:57.152Z,93.10
2022-07-28T03:46:28.064Z,93.03
2022-07-28T03:49:00.529Z,93.14
2022-07-28T03:51:30.362Z,92.89
2022-07-28T03:54:00.090Z,92.96
2022-07-28T03:56:29.821Z,93.06
2022-07-28T03:58:59.549Z,93.18
2022-07-28T04:01:29.576Z,93.22
2022-07-28T04:04:01.941Z,93.16
2022-07-28T04:06:31.704Z,93.18
2022-07-28T04:09:01.441Z,93.15
2022-07-28T04:11:31.232Z,93.24
2022-07-28T04:14:01.024Z,93.88
2022-07-28T04:16:30.845Z,94.13
2022-07-28T04:19:03.799Z,94.24
2022-07-28T04:21:33.531Z,94.41
2022-07-28T04:24:03.239Z,94.58
2022-07-28T04:26:32.952Z,94.88
2022-07-28T04:29:03.276Z,95.14
2022-07-28T04:31:33.302Z,95.49
2022-07-28T04:34:05.643Z,95.58
2022-07-28T04:36:41.871Z,95.74
2022-07-28T04:39:11.777Z,95.93
2022-07-28T04:41:41.957Z,96.26
2022-07-28T04:44:13.758Z,96.86
2022-07-28T04:46:44.679Z,97.35
2022-07-28T04:49:17.230Z,97.63
2022-07-28T04:51:50.662Z,97.63
2022-07-28T04:54:26.081Z,97.92
2022-07-28T04:56:56.373Z,98.09
2022-07-28T04:59:27.009Z,98.26
2022-07-28T05:01:58.524Z,98.54
2022-07-28T05:04:31.140Z,98.87
2022-07-28T05:07:00.934Z,98.46
2022-07-28T05:09:37.755Z,97.93
2022-07-28T05:12:07.933Z,97.52
2022-07-28T05:14:37.745Z,97.24
2022-07-28T05:17:07.495Z,97.41
2022-07-28T05:19:42.115Z,97.50
2022-07-28T05:22:11.876Z,97.67
2022-07-28T05:24:41.592Z,97.59
2022-07-28T05:27:12.272Z,97.91
2022-07-28T05:29:46.988Z,97.89
2022-07-28T05:32:18.232Z,97.93
2022-07-28T05:34:50.771Z,97.62
2022-07-28T05:37:20.566Z,97.28
2022-07-28T05:39:50.268Z,97.23
2022-07-28T05:42:20.010Z,97.02
2022-07-28T05:44:49.742Z,96.73
2022-07-28T05:47:19.431Z,96.61
2022-07-28T05:49:51.744Z,96.74
2022-07-28T05:52:21.687Z,96.55
2022-07-28T05:54:51.418Z,96.57
2022-07-28T05:57:21.137Z,96.37
2022-07-28T05:59:50.857Z,96.12
2022-07-28T06:02:20.885Z,96.01
2022-07-28T06:04:53.498Z,95.76
2022-07-28T06:07:23.241Z,95.74
2022-07-28T06:10:13.627Z,95.76
2022-07-28T06:12:44.182Z,95.82
2022-07-28T06:15:16.214Z,95.93
2022-07-28T06:17:46.009Z,96.24
2022-07-28T06:20:18.329Z,96.63
2022-07-28T06:22:50.170Z,96.89
2022-07-28T06:25:22.094Z,97.10
2022-07-28T06:27:55.166Z,97.01
2022-07-28T06:30:26.429Z,97.49
2022-07-28T06:32:56.393Z,97.30
2022-07-28T06:35:28.898Z,97.61
2022-07-28T06:37:58.689Z,97.70
2022-07-28T06:40:28.478Z,97.54
2022-07-28T06:42:58.272Z,97.67
2022-07-28T06:45:28.060Z,97.74
2022-07-28T06:47:57.798Z,97.65
2022-07-28T06:50:30.150Z,97.22
2022-07-28T06:53:00.559Z,97.09
2022-07-28T06:55:35.378Z,96.97
2022-07-28T06:58:05.930Z,97.12
2022-07-28T07:00:36.206Z,97.33
2022-07-28T07:03:09.639Z,97.18
2022-07-28T07:05:42.237Z,97.34
2022-07-28T07:08:11.975Z,96.66
2022-07-28T07:10:41.737Z,96.50
2022-07-28T07:13:11.500Z,96.28
2022-07-28T07:15:43.620Z,97.39
2022-07-28T07:18:13.354Z,97.14
2022-07-28T07:20:45.671Z,96.70
2022-07-28T07:23:15.450Z,97.37
2022-07-28T07:25:45.288Z,96.49
2022-07-28T07:28:15.362Z,95.19
2022-07-28T07:30:45.160Z,92.47
2022-07-28T07:33:14.950Z,90.46
2022-07-28T07:35:47.593Z,84.48
2022-07-28T07:38:17.310Z,83.02
2022-07-28T07:40:47.313Z,81.93
2022-07-28T07:43:17.033Z,78.19
2022-07-28T07:45:47.382Z,76.99
2022-07-28T07:48:17.121Z,75.64
2022-07-28T07:50:53.825Z,75.43
2022-07-28T07:53:24.406Z,73.81
2022-07-28T07:55:54.174Z,72.68
2022-07-28T07:58:24.064Z,72.55
2022-07-28T08:00:54.127Z,71.22
2022-07-28T08:03:24.076Z,70.40
2022-07-28T08:05:59.065Z,65.54
2022-07-28T08:08:29.968Z,67.48
2022-07-28T08:10:59.999Z,67.71
2022-07-28T08:13:33.785Z,68.10
2022-07-28T08:16:04.099Z,66.26
2022-07-28T08:18:33.837Z,65.76
2022-07-28T08:21:06.389Z,65.79
2022-07-28T08:23:36.120Z,67.56
2022-07-28T08:26:06.185Z,65.31
2022-07-28T08:28:35.865Z,65.59
2022-07-28T08:31:05.644Z,66.00
2022-07-28T08:33:35.370Z,65.00
2022-07-28T08:36:26.294Z,67.38
2022-07-28T08:38:56.016Z,65.88
2022-07-28T08:41:33.699Z,62.57
2022-07-28T08:44:05.756Z,64.56
2022-07-28T08:46:38.838Z,64.43
2022-07-28T08:49:11.207Z,65.65
2022-07-28T08:51:50.334Z,66.44
2022-07-28T08:54:24.347Z,65.51
2022-07-28T08:56:54.553Z,67.10
2022-07-28T08:59:24.783Z,67.74
2022-07-28T09:01:57.822Z,67.42
2022-07-28T09:04:29.254Z,66.46
2022-07-28T09:07:01.784Z,68.17
2022-07-28T09:09:32.051Z,67.98
2022-07-28T09:12:01.947Z,67.76
2022-07-28T09:14:31.711Z,67.60
2022-07-28T09:17:02.727Z,68.20
2022-07-28T09:19:35.860Z,67.78
2022-07-28T09:22:09.561Z,67.17
2022-07-28T09:24:41.235Z,67.76
2022-07-28T09:27:13.419Z,67.43
2022-07-28T09:29:45.034Z,68.08
2022-07-28T09:32:16.153Z,68.34
2022-07-28T09:34:48.494Z,68.30
2022-07-28T09:37:27.676Z,69.50
2022-07-28T09:39:59.466Z,69.62
2022-07-28T09:42:47.287Z,69.99
2022-07-28T09:45:25.092Z,69.72
2022-07-28T09:48:12.134Z,70.43
2022-07-28T09:50:43.088Z,70.64
2022-07-28T09:53:28.471Z,71.37
2022-07-28T09:56:00.967Z,71.04
2022-07-28T09:58:32.420Z,71.76
2022-07-28T10:01:07.367Z,71.13
2022-07-28T10:03:38.491Z,69.72
2022-07-28T10:06:11.700Z,71.17
2022-07-28T10:08:49.069Z,69.50
2022-07-28T10:11:21.805Z,70.20
2022-07-28T10:14:05.520Z,68.82
2022-07-28T10:16:36.947Z,69.72
2022-07-28T10:19:08.700Z,70.06
2022-07-28T10:21:44.261Z,68.79
2022-07-28T10:24:23.461Z,68.59
2022-07-28T10:26:55.320Z,67.37
2022-07-28T10:29:25.483Z,68.64
2022-07-28T10:31:57.214Z,66.72
2022-07-28T10:34:32.050Z,66.04
2022-07-28T10:37:05.187Z,66.43
2022-07-28T10:39:43.878Z,65.74
2022-07-28T10:42:14.932Z,66.53
2022-07-28T10:44:45.812Z,65.35
2022-07-28T10:47:18.461Z,65.96
2022-07-28T10:49:50.588Z,65.83
2022-07-28T10:55:21.864Z,64.59
2022-07-28T10:58:11.443Z,65.19
2022-07-28T11:01:04.720Z,64.34
2022-07-28T11:03:40.972Z,66.09
2022-07-28T11:06:30.596Z,65.63
2022-07-28T11:09:02.953Z,65.21
2022-07-28T11:11:52.711Z,65.74
2022-07-28T11:14:37.134Z,67.00
2022-07-28T11:17:23.931Z,68.01
2022-07-28T11:20:24.665Z,69.63
2022-07-28T11:22:49.376Z,68.04
2022-07-28T11:25:22.550Z,68.22
2022-07-28T11:28:08.412Z,68.03
2022-07-28T11:30:55.040Z,68.25
2022-07-28T11:33:25.369Z,69.41
2022-07-28T11:36:00.372Z,70.17
2022-07-28T11:38:31.978Z,70.06
2022-07-28T11:41:01.678Z,70.62
2022-07-28T11:43:40.205Z,69.61
2022-07-28T11:46:37.581Z,69.16
2022-07-28T11:49:22.557Z,68.76
2022-07-28T11:52:11.106Z,69.02
2022-07-28T11:54:41.919Z,69.72
2022-07-28T11:57:13.768Z,69.19
2022-07-28T11:59:59.908Z,69.62
2022-07-28T12:02:32.376Z,69.86
2022-07-28T12:05:14.570Z,68.78
2022-07-28T12:07:47.677Z,68.95
2022-07-28T12:10:54.477Z,69.10
2022-07-28T12:13:30.269Z,67.67
2022-07-28T12:16:02.677Z,68.59
2022-07-28T12:18:32.513Z,67.31
2022-07-28T12:21:05.353Z,68.53
2022-07-28T12:23:45.929Z,69.05
2022-07-28T12:26:40.915Z,69.07
2022-07-28T12:29:14.173Z,68.21
2022-07-28T12:31:59.380Z,68.44
2022-07-28T12:34:30.076Z,68.60
2022-07-28T12:37:02.521Z,67.47
2022-07-28T12:39:34.553Z,66.60
2022-07-28T12:42:06.200Z,67.46
2022-07-28T12:44:37.568Z,66.58
2022-07-28T12:47:12.432Z,64.85
2022-07-28T12:49:43.714Z,65.08
2022-07-28T12:52:22.189Z,66.68
2022-07-28T12:54:55.816Z,65.39
2022-07-28T12:57:51.679Z,65.70
2022-07-28T13:00:24.713Z,67.03
2022-07-28T13:03:00.621Z,66.08
2022-07-28T13:05:56.225Z,67.22
2022-07-28T13:08:29.454Z,69.16
2022-07-28T13:10:59.502Z,66.74
2022-07-28T13:13:30.541Z,64.87
2022-07-28T13:16:17.525Z,65.55
2022-07-28T13:18:51.991Z,64.13
2022-07-28T13:21:58.496Z,64.70
2022-07-28T13:24:32.558Z,65.86
2022-07-28T13:27:04.749Z,65.38
2022-07-28T13:29:37.002Z,67.76
2022-07-28T13:32:06.942Z,64.68
2022-07-28T13:34:39.347Z,65.20
2022-07-28T13:37:09.062Z,63.67
2022-07-28T13:39:38.789Z,63.80
2022-07-28T13:42:10.397Z,64.53
2022-07-28T13:44:41.084Z,66.04
2022-07-28T13:47:11.042Z,64.90
2022-07-28T13:49:49.190Z,64.94
2022-07-28T13:52:32.969Z,65.02
2022-07-28T13:55:06.333Z,64.76
2022-07-28T13:57:36.909Z,63.34
2022-07-28T14:00:09.449Z,62.22
2022-07-28T14:02:44.018Z,63.84
2022-07-28T14:05:16.738Z,65.68
2022-07-28T14:07:48.590Z,67.19
2022-07-28T14:10:19.238Z,66.93
2022-07-28T14:12:49.008Z,66.81
2022-07-28T14:15:18.735Z,66.65
2022-07-28T14:17:48.515Z,65.99
2022-07-28T14:20:20.875Z,66.54
2022-07-28T14:22:50.623Z,66.42
2022-07-28T14:25:21.737Z,66.45
2022-07-28T14:27:52.846Z,65.65
2022-07-28T14:30:23.516Z,65.99
2022-07-28T14:32:53.235Z,66.39
2022-07-28T14:35:26.600Z,67.87
2022-07-28T14:40:46.031Z,66.69
2022-07-28T14:43:15.815Z,68.14
2022-07-28T14:46:00.472Z,66.38
2022-07-28T14:48:35.593Z,67.64
2022-07-28T14:51:07.952Z,65.99
2022-07-28T14:53:43.207Z,66.54
2022-07-28T14:56:18.172Z,67.67
2022-07-28T14:58:47.892Z,67.40
2022-07-28T15:01:18.187Z,67.01
2022-07-28T15:03:48.000Z,67.12
2022-07-28T15:06:20.326Z,68.59
2022-07-28T15:08:50.036Z,68.07
2022-07-28T15:11:19.788Z,67.15
2022-07-28T15:13:49.529Z,67.43
2022-07-28T15:16:19.319Z,67.50
2022-07-28T15:18:49.125Z,67.04
2022-07-28T15:21:21.823Z,66.89
2022-07-28T15:23:51.535Z,67.45
2022-07-28T15:26:21.313Z,68.39
2022-07-28T15:28:51.149Z,68.24
2022-07-28T15:31:20.975Z,67.84
2022-07-28T15:33:57.652Z,68.52
2022-07-28T15:36:30.544Z,68.45
2022-07-28T15:39:00.344Z,69.22
2022-07-28T15:41:30.176Z,68.11
2022-07-28T15:43:59.940Z,67.97
2022-07-28T15:46:29.842Z,67.87
2022-07-28T15:49:00.541Z,69.08
2022-07-28T15:51:33.037Z,68.43
2022-07-28T15:54:03.625Z,67.99
2022-07-28T15:56:34.671Z,68.62
2022-07-28T15:59:07.353Z,69.86
2022-07-28T16:01:43.269Z,70.45
2022-07-28T16:04:15.330Z,70.75
2022-07-28T16:07:00.261Z,71.67
2022-07-28T16:09:46.087Z,70.02
2022-07-28T16:12:16.964Z,69.59
2022-07-28T16:14:46.718Z,70.11
2022-07-28T16:17:16.598Z,70.07
2022-07-28T16:19:49.592Z,69.60
2022-07-28T16:22:23.500Z,69.38
2022-07-28T16:24:53.528Z,70.34
2022-07-28T16:27:23.280Z,70.36
2022-07-28T16:29:52.988Z,70.25
2022-07-28T16:32:22.859Z,70.83
2022-07-28T16:34:53.956Z,70.41
2022-07-28T16:37:27.008Z,71.11
2022-07-28T16:39:57.593Z,71.20
2022-07-28T16:42:27.347Z,70.05
2022-07-28T16:44:57.335Z,70.23
2022-07-28T16:47:27.093Z,70.71
2022-07-28T16:49:56.813Z,70.55
2022-07-28T16:52:29.874Z,71.12
2022-07-28T16:54:59.579Z,70.38
2022-07-28T16:57:29.310Z,70.84
2022-07-28T16:59:59.031Z,69.75
2022-07-28T17:02:28.777Z,70.19
2022-07-28T17:04:58.622Z,70.49
2022-07-28T17:07:31.053Z,70.49
2022-07-28T17:10:00.778Z,70.19
2022-07-28T17:12:30.496Z,70.37
2022-07-28T17:15:00.302Z,70.46
2022-07-28T17:17:30.264Z,69.70
2022-07-28T17:20:00.508Z,70.16
2022-07-28T17:22:33.393Z,70.58
2022-07-28T17:25:06.858Z,70.66
2022-07-28T17:27:47.701Z,70.84
2022-07-28T17:30:18.375Z,70.77
2022-07-28T17:32:48.098Z,71.29
2022-07-28T17:35:34.416Z,71.85
2022-07-28T17:38:09.964Z,72.06
2022-07-28T17:40:42.781Z,71.38
2022-07-28T17:43:15.299Z,70.52
2022-07-28T17:45:45.031Z,70.88
2022-07-28T17:48:14.840Z,70.78
2022-07-28T17:50:44.994Z,70.73
2022-07-28T17:53:19.791Z,71.04
2022-07-28T17:56:00.584Z,71.92
2022-07-28T17:58:32.642Z,72.90
2022-07-28T18:01:11.986Z,73.54
2022-07-28T18:03:57.872Z,74.71
2022-07-28T18:06:30.702Z,74.91
2022-07-28T18:09:05.271Z,75.36
2022-07-28T18:11:58.451Z,75.50
2022-07-28T18:14:27.696Z,76.18
2022-07-28T18:16:57.752Z,76.75
2022-07-28T18:19:27.810Z,76.84
2022-07-28T18:21:59.044Z,77.24
2022-07-28T18:24:32.074Z,77.00
2022-07-28T18:27:02.048Z,77.28
2022-07-28T18:29:38.488Z,77.30
2022-07-28T18:32:10.457Z,76.96
2022-07-28T18:34:41.368Z,76.91
2022-07-28T18:37:11.125Z,76.91
2022-07-28T18:39:43.507Z,76.87
2022-07-28T18:42:13.437Z,76.88
2022-07-28T18:44:43.149Z,76.98
2022-07-28T18:47:13.603Z,77.00
2022-07-28T18:49:43.473Z,77.54
2022-07-28T18:52:13.225Z,77.61
2022-07-28T18:54:45.585Z,78.08
2022-07-28T18:57:15.304Z,79.51
2022-07-28T18:59:50.200Z,79.90
2022-07-28T19:02:22.096Z,80.74
2022-07-28T19:04:56.098Z,81.87
2022-07-28T19:07:25.779Z,82.29
2022-07-28T19:09:58.901Z,82.34
2022-07-28T19:12:31.234Z,82.24
2022-07-28T19:15:01.463Z,82.67
2022-07-28T19:17:31.224Z,82.55
2022-07-28T19:20:01.333Z,82.85
2022-07-28T19:22:31.073Z,83.00
2022-07-28T19:25:03.564Z,82.75
2022-07-28T19:27:34.433Z,83.03
2022-07-28T19:30:04.148Z,83.32
2022-07-28T19:32:33.949Z,83.36
2022-07-28T19:35:04.005Z,83.36
2022-07-28T19:37:37.094Z,83.74
2022-07-28T19:40:11.282Z,83.72
2022-07-28T19:42:41.038Z,83.84
2022-07-28T19:45:12.087Z,83.61
2022-07-28T19:47:42.353Z,83.30
2022-07-28T19:50:12.556Z,83.27
2022-07-28T19:52:42.898Z,83.38
2022-07-28T19:55:17.709Z,83.56
2022-07-28T19:57:48.143Z,83.40
2022-07-28T20:00:19.270Z,83.70
2022-07-28T20:02:49.074Z,83.86
2022-07-28T20:05:19.193Z,83.75
2022-07-28T20:07:48.929Z,83.57
2022-07-28T20:10:22.191Z,83.53
2022-07-28T20:12:52.035Z,84.12
2022-07-28T20:15:22.220Z,84.32
2022-07-28T20:17:51.963Z,84.23
2022-07-28T20:20:22.033Z,84.15
2022-07-28T20:22:51.971Z,84.37
2022-07-28T20:25:24.319Z,84.79
2022-07-28T20:27:54.745Z,84.89
2022-07-28T20:30:24.537Z,85.09
2022-07-28T20:32:54.300Z,85.02
2022-07-28T20:35:24.045Z,84.88
2022-07-28T20:37:53.954Z,84.94
2022-07-28T20:40:26.608Z,85.07
2022-07-28T20:42:56.831Z,85.11
2022-07-28T20:45:26.857Z,84.85
2022-07-28T20:47:56.577Z,85.02
2022-07-28T20:50:26.365Z,84.64
2022-07-28T20:52:56.126Z,84.58
2022-07-28T20:55:28.676Z,84.77
2022-07-28T20:57:58.711Z,84.92
2022-07-28T21:00:30.124Z,85.10
2022-07-28T21:03:01.556Z,85.05
2022-07-28T21:05:35.778Z,84.90
2022-07-28T21:08:09.489Z,85.04
2022-07-28T21:10:48.897Z,84.99
2022-07-28T21:13:18.619Z,85.08
2022-07-28T21:15:48.351Z,85.81
2022-07-28T21:18:18.377Z,85.78
2022-07-28T21:20:48.108Z,85.40
2022-07-28T21:23:18.971Z,85.28
2022-07-28T21:25:51.539Z,85.38
2022-07-28T21:28:33.678Z,85.15
2022-07-28T21:31:03.391Z,85.11
2022-07-28T21:33:33.216Z,85.08
2022-07-28T21:36:03.394Z,85.10
2022-07-28T21:38:33.207Z,85.38
2022-07-28T21:41:05.554Z,85.43
2022-07-28T21:43:35.306Z,85.54
2022-07-28T21:46:05.569Z,85.90
2022-07-28T21:48:35.489Z,85.79
2022-07-28T21:51:05.253Z,86.10
2022-07-28T21:53:49.119Z,85.98
2022-07-28T21:56:22.481Z,86.25
2022-07-28T21:58:52.462Z,86.63
2022-07-28T22:01:22.654Z,86.58
2022-07-28T22:03:52.864Z,86.95
2022-07-28T22:06:22.861Z,87.17
2022-07-28T22:08:54.111Z,87.40
2022-07-28T22:11:26.693Z,87.44
2022-07-28T22:13:56.349Z,87.50
2022-07-28T22:16:26.029Z,88.01
2022-07-28T22:18:55.721Z,88.05
2022-07-28T22:21:25.394Z,87.81
2022-07-28T22:23:55.034Z,87.95
2022-07-28T22:26:27.268Z,88.00
2022-07-28T22:28:56.915Z,88.04
2022-07-28T22:31:26.615Z,87.95
2022-07-28T22:33:56.287Z,88.27
2022-07-28T22:36:25.972Z,88.19
2022-07-28T22:38:55.786Z,88.09
2022-07-28T22:41:28.050Z,88.19
2022-07-28T22:43:58.694Z,88.19
2022-07-28T22:46:28.505Z,88.12
2022-07-28T22:48:58.344Z,88.22
2022-07-28T22:51:28.138Z,88.37
2022-07-28T22:53:59.078Z,88.44
2022-07-28T22:56:43.417Z,88.49
2022-07-28T22:59:14.438Z,88.60
2022-07-28T23:01:47.515Z,88.83
2022-07-28T23:04:17.756Z,89.11
2022-07-28T23:06:48.280Z,88.86
2022-07-28T23:09:18.098Z,88.97
2022-07-28T23:11:55.570Z,89.20
2022-07-28T23:14:25.741Z,89.96
2022-07-28T23:16:55.543Z,89.88
2022-07-28T23:19:25.408Z,89.85
2022-07-28T23:21:55.284Z,90.06
2022-07-28T23:24:25.191Z,90.12
2022-07-28T23:26:57.553Z,90.25
2022-07-28T23:29:27.312Z,90.35
2022-07-28T23:31:57.124Z,90.69
2022-07-28T23:34:26.944Z,90.67
2022-07-28T23:36:56.701Z,90.48
2022-07-28T23:39:26.486Z,90.53
2022-07-28T23:41:58.886Z,90.76
2022-07-28T23:44:28.659Z,90.69
2022-07-28T23:46:58.458Z,90.85
2022-07-28T23:49:28.484Z,91.22
2022-07-28T23:51:58.278Z,91.72
2022-07-28T23:54:27.999Z,91.83
2022-07-28T23:57:00.328Z,91.60
2022-07-28T23:59:30.096Z,91.65
